sensor_id;sensor_type;location;lat;lon;timestamp;pressure;altitude;pressure_sealevel;temperature;humidity
59787;BME280;45672;51.612;5.536;2022-09-03T00:00:13;100915.88;;;17.15;48.48
59787;BME280;45672;51.612;5.536;2022-09-03T00:02:56;100914.22;;;17.14;48.46
59787;BME280;45672;51.612;5.536;2022-09-03T00:05:42;100911.34;;;17.16;48.12
59787;BME280;45672;51.612;5.536;2022-09-03T00:08:30;100910.25;;;17.10;48.37
59787;BME280;45672;51.612;5.536;2022-09-03T00:11:20;100910.22;;;17.03;48.43
59787;BME280;45672;51.612;5.536;2022-09-03T00:14:26;100912.66;;;16.98;49.40
59787;BME280;45672;51.612;5.536;2022-09-03T00:17:00;100908.31;;;16.97;48.82
59787;BME280;45672;51.612;5.536;2022-09-03T00:19:31;100916.38;;;16.97;49.20
59787;BME280;45672;51.612;5.536;2022-09-03T00:22:03;100905.38;;;16.92;49.30
59787;BME280;45672;51.612;5.536;2022-09-03T00:24:35;100913.44;;;16.92;49.37
59787;BME280;45672;51.612;5.536;2022-09-03T00:27:05;100911.16;;;16.89;49.73
59787;BME280;45672;51.612;5.536;2022-09-03T00:29:45;100914.06;;;16.94;48.09
59787;BME280;45672;51.612;5.536;2022-09-03T00:32:20;100903.50;;;16.93;49.12
59787;BME280;45672;51.612;5.536;2022-09-03T00:34:55;100909.72;;;16.93;49.10
59787;BME280;45672;51.612;5.536;2022-09-03T00:37:21;100905.47;;;16.84;49.51
59787;BME280;45672;51.612;5.536;2022-09-03T00:39:47;100903.84;;;16.83;49.82
59787;BME280;45672;51.612;5.536;2022-09-03T00:45:10;100907.09;;;16.78;49.90
59787;BME280;45672;51.612;5.536;2022-09-03T00:50:37;100915.34;;;16.77;49.59
59787;BME280;45672;51.612;5.536;2022-09-03T00:53:19;100905.63;;;16.76;49.46
59787;BME280;45672;51.612;5.536;2022-09-03T00:58:42;100902.31;;;16.74;49.81
59787;BME280;45672;51.612;5.536;2022-09-03T01:01:17;100905.81;;;16.74;50.19
59787;BME280;45672;51.612;5.536;2022-09-03T01:03:53;100907.50;;;16.75;50.19
59787;BME280;45672;51.612;5.536;2022-09-03T01:06:35;100902.69;;;16.70;50.28
59787;BME280;45672;51.612;5.536;2022-09-03T01:14:42;100902.69;;;16.70;50.29
59787;BME280;45672;51.612;5.536;2022-09-03T01:34:14;100912.19;;;16.45;50.65
59787;BME280;45672;51.612;5.536;2022-09-03T01:42:45;100909.38;;;16.31;51.57
59787;BME280;45672;51.612;5.536;2022-09-03T01:46:16;100908.94;;;16.28;51.87
59787;BME280;45672;51.612;5.536;2022-09-03T01:51:10;100906.16;;;16.21;51.95
59787;BME280;45672;51.612;5.536;2022-09-03T01:56:18;100907.75;;;16.15;52.17
59787;BME280;45672;51.612;5.536;2022-09-03T01:59:08;100904.63;;;16.12;51.51
59787;BME280;45672;51.612;5.536;2022-09-03T02:01:45;100898.53;;;16.03;52.35
59787;BME280;45672;51.612;5.536;2022-09-03T02:04:19;100898.47;;;15.96;52.63
59787;BME280;45672;51.612;5.536;2022-09-03T02:06:47;100899.03;;;15.92;53.02
59787;BME280;45672;51.612;5.536;2022-09-03T02:09:15;100903.56;;;15.91;52.94
59787;BME280;45672;51.612;5.536;2022-09-03T02:11:41;100915.13;;;15.92;53.20
59787;BME280;45672;51.612;5.536;2022-09-03T02:14:08;100895.53;;;15.91;53.13
59787;BME280;45672;51.612;5.536;2022-09-03T02:16:33;100900.50;;;15.94;53.12
59787;BME280;45672;51.612;5.536;2022-09-03T02:19:06;100897.56;;;15.89;53.19
59787;BME280;45672;51.612;5.536;2022-09-03T02:21:38;100897.94;;;15.86;53.22
59787;BME280;45672;51.612;5.536;2022-09-03T02:24:06;100897.09;;;15.85;53.19
59787;BME280;45672;51.612;5.536;2022-09-03T02:26:32;100883.88;;;15.84;53.32
59787;BME280;45672;51.612;5.536;2022-09-03T02:28:57;100891.31;;;15.82;53.37
59787;BME280;45672;51.612;5.536;2022-09-03T02:31:23;100891.47;;;15.80;53.25
59787;BME280;45672;51.612;5.536;2022-09-03T02:33:49;100893.13;;;15.81;53.13
59787;BME280;45672;51.612;5.536;2022-09-03T02:36:20;100888.78;;;15.80;53.15
59787;BME280;45672;51.612;5.536;2022-09-03T02:38:49;100894.50;;;15.77;53.30
59787;BME280;45672;51.612;5.536;2022-09-03T02:41:14;100894.69;;;15.76;53.37
59787;BME280;45672;51.612;5.536;2022-09-03T02:43:52;100897.03;;;15.79;52.73
59787;BME280;45672;51.612;5.536;2022-09-03T02:46:26;100900.06;;;15.76;53.38
59787;BME280;45672;51.612;5.536;2022-09-03T02:48:53;100902.09;;;15.74;53.35
59787;BME280;45672;51.612;5.536;2022-09-03T02:51:19;100899.81;;;15.71;53.37
59787;BME280;45672;51.612;5.536;2022-09-03T02:53:44;100889.44;;;15.67;53.60
59787;BME280;45672;51.612;5.536;2022-09-03T02:56:10;100899.53;;;15.65;53.69
59787;BME280;45672;51.612;5.536;2022-09-03T02:58:38;100898.41;;;15.60;53.91
59787;BME280;45672;51.612;5.536;2022-09-03T03:01:04;100893.88;;;15.60;53.79
59787;BME280;45672;51.612;5.536;2022-09-03T03:03:30;100901.91;;;15.60;53.81
59787;BME280;45672;51.612;5.536;2022-09-03T03:05:58;100902.13;;;15.59;53.66
59787;BME280;45672;51.612;5.536;2022-09-03T03:08:28;100895.47;;;15.55;53.72
59787;BME280;45672;51.612;5.536;2022-09-03T03:10:55;100891.56;;;15.57;53.68
59787;BME280;45672;51.612;5.536;2022-09-03T03:13:27;100896.50;;;15.54;53.77
59787;BME280;45672;51.612;5.536;2022-09-03T03:15:57;100891.47;;;15.50;54.16
59787;BME280;45672;51.612;5.536;2022-09-03T03:18:22;100894.34;;;15.49;54.13
59787;BME280;45672;51.612;5.536;2022-09-03T03:20:47;100890.28;;;15.53;53.79
59787;BME280;45672;51.612;5.536;2022-09-03T03:23:13;100888.06;;;15.57;54.10
59787;BME280;45672;51.612;5.536;2022-09-03T03:25:39;100882.16;;;15.46;54.01
59787;BME280;45672;51.612;5.536;2022-09-03T03:28:05;100891.22;;;15.45;54.09
59787;BME280;45672;51.612;5.536;2022-09-03T03:30:31;100883.38;;;15.44;54.39
59787;BME280;45672;51.612;5.536;2022-09-03T03:32:56;100886.06;;;15.44;54.34
59787;BME280;45672;51.612;5.536;2022-09-03T03:35:23;100889.75;;;15.43;54.01
59787;BME280;45672;51.612;5.536;2022-09-03T03:37:48;100896.31;;;15.40;54.30
59787;BME280;45672;51.612;5.536;2022-09-03T03:40:13;100889.47;;;15.38;54.37
59787;BME280;45672;51.612;5.536;2022-09-03T03:42:39;100894.63;;;15.39;54.24
59787;BME280;45672;51.612;5.536;2022-09-03T03:45:05;100899.72;;;15.34;54.55
59787;BME280;45672;51.612;5.536;2022-09-03T03:47:31;100898.25;;;15.31;54.72
59787;BME280;45672;51.612;5.536;2022-09-03T03:49:57;100896.50;;;15.39;54.66
59787;BME280;45672;51.612;5.536;2022-09-03T03:52:23;100909.34;;;15.43;54.48
59787;BME280;45672;51.612;5.536;2022-09-03T03:54:49;100903.97;;;15.43;54.47
59787;BME280;45672;51.612;5.536;2022-09-03T03:57:15;100901.47;;;15.42;54.43
59787;BME280;45672;51.612;5.536;2022-09-03T03:59:40;100891.50;;;15.36;54.54
59787;BME280;45672;51.612;5.536;2022-09-03T04:02:05;100895.75;;;15.30;54.58
59787;BME280;45672;51.612;5.536;2022-09-03T04:04:31;100891.97;;;15.24;55.14
59787;BME280;45672;51.612;5.536;2022-09-03T04:06:56;100892.59;;;15.26;54.83
59787;BME280;45672;51.612;5.536;2022-09-03T04:09:21;100883.56;;;15.27;54.88
59787;BME280;45672;51.612;5.536;2022-09-03T04:11:47;100891.03;;;15.32;54.54
59787;BME280;45672;51.612;5.536;2022-09-03T04:14:12;100884.50;;;15.20;55.06
59787;BME280;45672;51.612;5.536;2022-09-03T04:16:37;100890.66;;;15.20;55.25
59787;BME280;45672;51.612;5.536;2022-09-03T04:19:03;100890.19;;;15.16;55.44
59787;BME280;45672;51.612;5.536;2022-09-03T04:21:29;100883.81;;;15.17;55.11
59787;BME280;45672;51.612;5.536;2022-09-03T04:23:56;100873.28;;;15.16;55.61
59787;BME280;45672;51.612;5.536;2022-09-03T04:26:24;100877.16;;;15.13;55.55
59787;BME280;45672;51.612;5.536;2022-09-03T04:28:49;100887.44;;;15.10;55.55
59787;BME280;45672;51.612;5.536;2022-09-03T04:31:17;100877.09;;;15.07;55.68
59787;BME280;45672;51.612;5.536;2022-09-03T04:33:43;100879.22;;;15.11;55.76
59787;BME280;45672;51.612;5.536;2022-09-03T04:36:11;100882.25;;;15.08;56.06
59787;BME280;45672;51.612;5.536;2022-09-03T04:38:39;100876.06;;;15.08;56.06
59787;BME280;45672;51.612;5.536;2022-09-03T04:41:07;100878.47;;;15.03;56.22
59787;BME280;45672;51.612;5.536;2022-09-03T04:43:33;100874.13;;;15.02;56.18
59787;BME280;45672;51.612;5.536;2022-09-03T04:46:00;100877.72;;;14.94;56.28
59787;BME280;45672;51.612;5.536;2022-09-03T04:48:27;100875.06;;;14.94;56.83
59787;BME280;45672;51.612;5.536;2022-09-03T04:50:53;100878.53;;;14.94;56.47
59787;BME280;45672;51.612;5.536;2022-09-03T04:53:19;100882.72;;;14.97;56.63
59787;BME280;45672;51.612;5.536;2022-09-03T04:55:45;100882.91;;;14.95;56.54
59787;BME280;45672;51.612;5.536;2022-09-03T04:58:10;100887.03;;;14.98;56.63
59787;BME280;45672;51.612;5.536;2022-09-03T05:00:36;100896.94;;;14.97;56.60
59787;BME280;45672;51.612;5.536;2022-09-03T05:03:02;100889.38;;;15.01;56.46
59787;BME280;45672;51.612;5.536;2022-09-03T05:05:29;100890.81;;;15.04;56.32
59787;BME280;45672;51.612;5.536;2022-09-03T05:08:02;100891.03;;;15.02;56.42
59787;BME280;45672;51.612;5.536;2022-09-03T05:10:28;100882.16;;;15.02;56.49
59787;BME280;45672;51.612;5.536;2022-09-03T05:13:02;100887.69;;;15.00;56.33
59787;BME280;45672;51.612;5.536;2022-09-03T05:15:28;100881.53;;;14.99;56.61
59787;BME280;45672;51.612;5.536;2022-09-03T05:17:58;100888.53;;;15.00;56.47
59787;BME280;45672;51.612;5.536;2022-09-03T05:20:24;100887.69;;;15.00;56.29
59787;BME280;45672;51.612;5.536;2022-09-03T05:22:50;100889.19;;;15.03;56.70
59787;BME280;45672;51.612;5.536;2022-09-03T05:25:16;100887.16;;;15.05;56.54
59787;BME280;45672;51.612;5.536;2022-09-03T05:27:41;100881.78;;;15.05;56.52
59787;BME280;45672;51.612;5.536;2022-09-03T05:30:06;100889.25;;;15.09;56.48
59787;BME280;45672;51.612;5.536;2022-09-03T05:32:32;100886.44;;;15.11;56.56
59787;BME280;45672;51.612;5.536;2022-09-03T05:34:58;100886.69;;;15.16;56.53
59787;BME280;45672;51.612;5.536;2022-09-03T05:37:23;100891.16;;;15.24;56.25
59787;BME280;45672;51.612;5.536;2022-09-03T05:39:49;100884.56;;;15.26;56.22
59787;BME280;45672;51.612;5.536;2022-09-03T05:42:14;100894.28;;;15.27;56.47
59787;BME280;45672;51.612;5.536;2022-09-03T05:44:39;100885.41;;;15.27;56.23
59787;BME280;45672;51.612;5.536;2022-09-03T05:47:05;100885.22;;;15.28;56.46
59787;BME280;45672;51.612;5.536;2022-09-03T05:49:31;100881.97;;;15.33;56.38
59787;BME280;45672;51.612;5.536;2022-09-03T05:51:56;100888.06;;;15.42;56.11
59787;BME280;45672;51.612;5.536;2022-09-03T05:54:22;100878.00;;;15.44;55.78
59787;BME280;45672;51.612;5.536;2022-09-03T05:56:47;100888.72;;;15.44;56.43
59787;BME280;45672;51.612;5.536;2022-09-03T05:59:12;100887.69;;;15.45;56.30
59787;BME280;45672;51.612;5.536;2022-09-03T06:01:40;100890.66;;;15.50;56.09
59787;BME280;45672;51.612;5.536;2022-09-03T06:04:11;100886.69;;;15.61;55.77
59787;BME280;45672;51.612;5.536;2022-09-03T06:06:39;100891.47;;;15.65;55.96
59787;BME280;45672;51.612;5.536;2022-09-03T06:09:08;100893.00;;;15.75;55.99
59787;BME280;45672;51.612;5.536;2022-09-03T06:11:35;100882.09;;;15.91;55.56
59787;BME280;45672;51.612;5.536;2022-09-03T06:14:04;100892.84;;;16.13;55.10
59787;BME280;45672;51.612;5.536;2022-09-03T06:16:31;100884.81;;;16.34;54.23
59787;BME280;45672;51.612;5.536;2022-09-03T06:18:56;100882.94;;;16.57;53.68
59787;BME280;45672;51.612;5.536;2022-09-03T06:21:22;100885.59;;;16.78;52.93
59787;BME280;45672;51.612;5.536;2022-09-03T06:23:51;100888.31;;;17.06;52.61
59787;BME280;45672;51.612;5.536;2022-09-03T06:26:18;100886.44;;;17.42;51.95
59787;BME280;45672;51.612;5.536;2022-09-03T06:28:45;100894.03;;;17.73;50.44
59787;BME280;45672;51.612;5.536;2022-09-03T06:31:14;100888.78;;;18.07;50.09
59787;BME280;45672;51.612;5.536;2022-09-03T06:33:41;100888.44;;;18.57;48.45
59787;BME280;45672;51.612;5.536;2022-09-03T06:36:09;100895.72;;;18.97;47.61
59787;BME280;45672;51.612;5.536;2022-09-03T06:38:37;100897.06;;;19.39;46.49
59787;BME280;45672;51.612;5.536;2022-09-03T06:43:32;100897.38;;;20.47;44.85
59787;BME280;45672;51.612;5.536;2022-09-03T06:46:04;100889.03;;;21.17;43.20
59787;BME280;45672;51.612;5.536;2022-09-03T06:48:31;100896.41;;;21.84;41.66
59787;BME280;45672;51.612;5.536;2022-09-03T06:50:59;100892.25;;;22.43;40.01
59787;BME280;45672;51.612;5.536;2022-09-03T06:53:30;100899.88;;;23.12;39.68
59787;BME280;45672;51.612;5.536;2022-09-03T06:56:04;100900.81;;;23.70;37.45
59787;BME280;45672;51.612;5.536;2022-09-03T06:58:32;100895.13;;;24.29;36.48
59787;BME280;45672;51.612;5.536;2022-09-03T07:01:10;100897.88;;;24.63;37.45
59787;BME280;45672;51.612;5.536;2022-09-03T07:03:38;100893.53;;;25.18;35.36
59787;BME280;45672;51.612;5.536;2022-09-03T07:06:06;100894.22;;;25.48;34.12
59787;BME280;45672;51.612;5.536;2022-09-03T07:08:32;100896.97;;;25.75;33.62
59787;BME280;45672;51.612;5.536;2022-09-03T07:11:03;100899.09;;;26.17;33.34
59787;BME280;45672;51.612;5.536;2022-09-03T07:13:39;100902.75;;;26.65;32.93
59787;BME280;45672;51.612;5.536;2022-09-03T07:16:08;100901.19;;;26.70;32.12
59787;BME280;45672;51.612;5.536;2022-09-03T07:18:34;100902.97;;;26.26;32.11
59787;BME280;45672;51.612;5.536;2022-09-03T07:21:02;100909.88;;;25.18;33.70
59787;BME280;45672;51.612;5.536;2022-09-03T07:23:29;100903.00;;;24.93;34.21
59787;BME280;45672;51.612;5.536;2022-09-03T07:26:00;100902.56;;;25.41;33.93
59787;BME280;45672;51.612;5.536;2022-09-03T07:28:26;100898.63;;;26.25;32.49
59787;BME280;45672;51.612;5.536;2022-09-03T07:30:53;100899.50;;;27.06;30.79
59787;BME280;45672;51.612;5.536;2022-09-03T07:33:19;100899.88;;;27.30;30.79
59787;BME280;45672;51.612;5.536;2022-09-03T07:35:45;100906.91;;;27.69;29.57
59787;BME280;45672;51.612;5.536;2022-09-03T07:38:15;100905.13;;;28.36;29.58
59787;BME280;45672;51.612;5.536;2022-09-03T07:40:40;100899.16;;;29.56;27.69
59787;BME280;45672;51.612;5.536;2022-09-03T07:43:06;100902.16;;;29.65;26.53
59787;BME280;45672;51.612;5.536;2022-09-03T07:45:31;100913.22;;;30.00;26.64
59787;BME280;45672;51.612;5.536;2022-09-03T07:47:58;100913.19;;;30.39;26.57
59787;BME280;45672;51.612;5.536;2022-09-03T07:50:23;100912.50;;;31.17;25.03
59787;BME280;45672;51.612;5.536;2022-09-03T07:52:49;100915.03;;;31.56;24.61
59787;BME280;45672;51.612;5.536;2022-09-03T07:55:14;100913.47;;;31.74;24.22
59787;BME280;45672;51.612;5.536;2022-09-03T07:57:39;100918.50;;;31.86;23.79
59787;BME280;45672;51.612;5.536;2022-09-03T08:00:06;100920.06;;;31.92;24.02
59787;BME280;45672;51.612;5.536;2022-09-03T08:02:35;100924.41;;;31.55;23.88
59787;BME280;45672;51.612;5.536;2022-09-03T08:05:00;100912.75;;;31.20;24.74
59787;BME280;45672;51.612;5.536;2022-09-03T08:07:28;100910.28;;;31.19;24.98
59787;BME280;45672;51.612;5.536;2022-09-03T08:09:53;100919.38;;;31.62;25.02
59787;BME280;45672;51.612;5.536;2022-09-03T08:12:19;100919.78;;;31.94;24.07
59787;BME280;45672;51.612;5.536;2022-09-03T08:14:44;100919.75;;;32.51;23.56
59787;BME280;45672;51.612;5.536;2022-09-03T08:17:09;100913.50;;;33.06;22.59
59787;BME280;45672;51.612;5.536;2022-09-03T08:19:36;100924.03;;;33.18;22.36
59787;BME280;45672;51.612;5.536;2022-09-03T08:22:02;100920.16;;;33.05;22.96
59787;BME280;45672;51.612;5.536;2022-09-03T08:24:27;100921.94;;;33.93;21.50
59787;BME280;45672;51.612;5.536;2022-09-03T08:26:52;100934.50;;;34.67;21.02
59787;BME280;45672;51.612;5.536;2022-09-03T08:29:20;100937.16;;;35.04;21.28
59787;BME280;45672;51.612;5.536;2022-09-03T08:31:46;100941.63;;;35.80;20.23
59787;BME280;45672;51.612;5.536;2022-09-03T08:34:11;100931.22;;;36.30;19.96
59787;BME280;45672;51.612;5.536;2022-09-03T08:36:38;100939.22;;;36.96;18.81
59787;BME280;45672;51.612;5.536;2022-09-03T08:39:06;100931.22;;;36.30;19.01
59787;BME280;45672;51.612;5.536;2022-09-03T08:41:52;100938.13;;;35.48;20.82
59787;BME280;45672;51.612;5.536;2022-09-03T08:49:33;100942.66;;;35.35;21.20
59787;BME280;45672;51.612;5.536;2022-09-03T08:52:06;100938.06;;;35.31;20.85
59787;BME280;45672;51.612;5.536;2022-09-03T08:54:33;100946.84;;;34.39;21.03
59787;BME280;45672;51.612;5.536;2022-09-03T08:57:01;100939.69;;;34.92;20.50
59787;BME280;45672;51.612;5.536;2022-09-03T08:59:30;100938.47;;;35.55;20.62
59787;BME280;45672;51.612;5.536;2022-09-03T09:02:19;100943.00;;;35.34;20.84
59787;BME280;45672;51.612;5.536;2022-09-03T09:04:59;100941.34;;;34.70;21.22
59787;BME280;45672;51.612;5.536;2022-09-03T09:07:51;100943.88;;;35.78;20.83
59787;BME280;45672;51.612;5.536;2022-09-03T09:13:27;100939.19;;;37.05;20.14
59787;BME280;45672;51.612;5.536;2022-09-03T09:16:09;100945.34;;;38.34;18.61
59787;BME280;45672;51.612;5.536;2022-09-03T09:21:23;100942.97;;;38.90;17.48
59787;BME280;45672;51.612;5.536;2022-09-03T09:23:51;100938.38;;;38.27;17.32
59787;BME280;45672;51.612;5.536;2022-09-03T09:26:20;100933.78;;;38.32;17.37
59787;BME280;45672;51.612;5.536;2022-09-03T09:28:55;100939.69;;;38.09;17.58
59787;BME280;45672;51.612;5.536;2022-09-03T09:31:21;100939.50;;;37.93;17.65
59787;BME280;45672;51.612;5.536;2022-09-03T09:33:47;100937.56;;;38.60;17.45
59787;BME280;45672;51.612;5.536;2022-09-03T09:36:15;100930.78;;;38.37;17.72
59787;BME280;45672;51.612;5.536;2022-09-03T09:38:41;100930.63;;;38.00;17.39
59787;BME280;45672;51.612;5.536;2022-09-03T09:41:13;100932.13;;;38.64;17.27
59787;BME280;45672;51.612;5.536;2022-09-03T09:43:40;100927.31;;;39.47;16.50
59787;BME280;45672;51.612;5.536;2022-09-03T09:46:19;100932.19;;;40.32;15.57
59787;BME280;45672;51.612;5.536;2022-09-03T09:48:58;100931.19;;;40.24;15.97
59787;BME280;45672;51.612;5.536;2022-09-03T09:51:30;100932.28;;;40.96;15.31
59787;BME280;45672;51.612;5.536;2022-09-03T09:56:29;100943.66;;;41.74;14.37
59787;BME280;45672;51.612;5.536;2022-09-03T09:59:08;100946.91;;;42.15;15.10
59787;BME280;45672;51.612;5.536;2022-09-03T10:01:37;100942.94;;;40.18;15.48
59787;BME280;45672;51.612;5.536;2022-09-03T10:04:11;100940.56;;;39.91;15.71
59787;BME280;45672;51.612;5.536;2022-09-03T10:06:38;100941.47;;;40.08;15.49
59787;BME280;45672;51.612;5.536;2022-09-03T10:09:29;100935.31;;;40.30;16.10
59787;BME280;45672;51.612;5.536;2022-09-03T10:12:07;100939.78;;;40.19;15.78
59787;BME280;45672;51.612;5.536;2022-09-03T10:14:49;100936.81;;;41.36;15.26
59787;BME280;45672;51.612;5.536;2022-09-03T10:17:26;100935.38;;;40.18;15.59
59787;BME280;45672;51.612;5.536;2022-09-03T10:20:08;100931.44;;;37.49;17.76
59787;BME280;45672;51.612;5.536;2022-09-03T10:25:22;100920.53;;;32.52;23.21
59787;BME280;45672;51.612;5.536;2022-09-03T10:27:51;100917.22;;;31.35;24.00
59787;BME280;45672;51.612;5.536;2022-09-03T10:30:19;100905.72;;;30.80;24.80
59787;BME280;45672;51.612;5.536;2022-09-03T10:33:04;100908.91;;;30.28;25.38
59787;BME280;45672;51.612;5.536;2022-09-03T10:35:38;100904.91;;;29.60;26.26
59787;BME280;45672;51.612;5.536;2022-09-03T10:38:17;100917.38;;;29.16;26.84
59787;BME280;45672;51.612;5.536;2022-09-03T10:40:55;100908.13;;;28.61;27.76
59787;BME280;45672;51.612;5.536;2022-09-03T10:51:25;100913.75;;;27.66;28.77
59787;BME280;45672;51.612;5.536;2022-09-03T10:54:19;100911.19;;;27.44;29.15
59787;BME280;45672;51.612;5.536;2022-09-03T10:57:16;100908.72;;;27.43;29.45
59787;BME280;45672;51.612;5.536;2022-09-03T11:05:08;100909.56;;;27.48;30.00
59787;BME280;45672;51.612;5.536;2022-09-03T11:07:42;100911.44;;;27.43;30.09
59787;BME280;45672;51.612;5.536;2022-09-03T11:10:20;100906.00;;;27.43;29.66
59787;BME280;45672;51.612;5.536;2022-09-03T11:15:48;100903.19;;;27.32;30.06
59787;BME280;45672;51.612;5.536;2022-09-03T11:18:23;100898.78;;;27.26;30.52
59787;BME280;45672;51.612;5.536;2022-09-03T11:20:55;100895.66;;;27.55;30.14
59787;BME280;45672;51.612;5.536;2022-09-03T11:23:27;100912.63;;;27.62;30.02
59787;BME280;45672;51.612;5.536;2022-09-03T11:26:01;100900.63;;;27.68;30.47
59787;BME280;45672;51.612;5.536;2022-09-03T11:29:00;100903.69;;;27.98;30.14
59787;BME280;45672;51.612;5.536;2022-09-03T11:31:48;100893.03;;;27.86;29.38
59787;BME280;45672;51.612;5.536;2022-09-03T11:36:50;100891.47;;;27.37;30.48
59787;BME280;45672;51.612;5.536;2022-09-03T11:42:07;100883.78;;;26.81;30.84
59787;BME280;45672;51.612;5.536;2022-09-03T11:44:36;100883.78;;;26.81;31.17
59787;BME280;45672;51.612;5.536;2022-09-03T11:47:19;100883.84;;;26.91;31.25
59787;BME280;45672;51.612;5.536;2022-09-03T11:49:48;100879.19;;;26.87;31.85
59787;BME280;45672;51.612;5.536;2022-09-03T11:52:25;100877.63;;;27.01;30.89
59787;BME280;45672;51.612;5.536;2022-09-03T11:54:50;100881.34;;;26.84;31.80
59787;BME280;45672;51.612;5.536;2022-09-03T11:57:24;100879.78;;;26.99;31.44
59787;BME280;45672;51.612;5.536;2022-09-03T11:59:51;100883.63;;;27.03;30.96
59787;BME280;45672;51.612;5.536;2022-09-03T12:02:26;100884.94;;;26.90;30.85
59787;BME280;45672;51.612;5.536;2022-09-03T12:05:07;100886.47;;;26.76;31.39
59787;BME280;45672;51.612;5.536;2022-09-03T12:10:42;100889.56;;;26.90;31.38
59787;BME280;45672;51.612;5.536;2022-09-03T12:16:02;100891.81;;;26.98;30.92
59787;BME280;45672;51.612;5.536;2022-09-03T12:18:34;100889.38;;;27.01;31.41
59787;BME280;45672;51.612;5.536;2022-09-03T12:21:03;100894.81;;;26.96;31.04
59787;BME280;45672;51.612;5.536;2022-09-03T12:26:05;100888.47;;;27.39;31.02
59787;BME280;45672;51.612;5.536;2022-09-03T12:28:35;100899.41;;;27.39;30.48
59787;BME280;45672;51.612;5.536;2022-09-03T12:31:16;100899.75;;;27.05;31.12
59787;BME280;45672;51.612;5.536;2022-09-03T12:33:52;100883.03;;;26.91;31.35
59787;BME280;45672;51.612;5.536;2022-09-03T12:36:22;100888.78;;;26.94;31.71
59787;BME280;45672;51.612;5.536;2022-09-03T12:38:48;100877.59;;;26.91;31.58
59787;BME280;45672;51.612;5.536;2022-09-03T12:41:25;100880.72;;;27.15;32.29
59787;BME280;45672;51.612;5.536;2022-09-03T12:43:56;100876.38;;;27.24;30.93
59787;BME280;45672;51.612;5.536;2022-09-03T12:46:27;100876.47;;;27.40;31.40
59787;BME280;45672;51.612;5.536;2022-09-03T12:51:18;100881.94;;;27.40;31.07
59787;BME280;45672;51.612;5.536;2022-09-03T12:53:45;100882.00;;;27.60;31.46
59787;BME280;45672;51.612;5.536;2022-09-03T12:56:11;100876.00;;;27.63;30.47
59787;BME280;45672;51.612;5.536;2022-09-03T12:58:58;100874.97;;;27.90;30.39
59787;BME280;45672;51.612;5.536;2022-09-03T13:01:28;100882.03;;;27.71;29.94
59787;BME280;45672;51.612;5.536;2022-09-03T13:09:20;100881.53;;;27.94;29.64
59787;BME280;45672;51.612;5.536;2022-09-03T13:11:46;100878.53;;;27.91;29.70
59787;BME280;45672;51.612;5.536;2022-09-03T13:14:12;100870.84;;;27.82;29.71
59787;BME280;45672;51.612;5.536;2022-09-03T13:30:14;100862.34;;;27.79;29.14
59787;BME280;45672;51.612;5.536;2022-09-03T13:32:51;100868.91;;;27.73;29.13
59787;BME280;45672;51.612;5.536;2022-09-03T13:35:25;100867.78;;;27.58;29.80
59787;BME280;45672;51.612;5.536;2022-09-03T13:38:26;100863.97;;;27.64;29.70
59787;BME280;45672;51.612;5.536;2022-09-03T13:40:55;100857.97;;;27.62;28.91
59787;BME280;45672;51.612;5.536;2022-09-03T13:43:31;100854.41;;;27.67;29.12
59787;BME280;45672;51.612;5.536;2022-09-03T13:46:33;100852.59;;;28.03;28.67
59787;BME280;45672;51.612;5.536;2022-09-03T13:49:18;100852.31;;;28.15;27.31
59787;BME280;45672;51.612;5.536;2022-09-03T13:52:08;100851.50;;;28.10;27.70
59787;BME280;45672;51.612;5.536;2022-09-03T13:54:44;100860.81;;;28.03;28.36
59787;BME280;45672;51.612;5.536;2022-09-03T14:00:09;100859.34;;;27.65;28.03
59787;BME280;45672;51.612;5.536;2022-09-03T14:03:05;100858.50;;;27.64;28.43
59787;BME280;45672;51.612;5.536;2022-09-03T14:05:49;100849.75;;;27.52;28.84
59787;BME280;45672;51.612;5.536;2022-09-03T14:08:29;100860.66;;;27.47;28.97
59787;BME280;45672;51.612;5.536;2022-09-03T14:11:21;100857.38;;;27.45;29.03
59787;BME280;45672;51.612;5.536;2022-09-03T14:17:31;100859.47;;;27.32;29.48
59787;BME280;45672;51.612;5.536;2022-09-03T14:25:15;100861.44;;;27.37;28.87
59787;BME280;45672;51.612;5.536;2022-09-03T14:27:41;100860.81;;;27.30;29.00
59787;BME280;45672;51.612;5.536;2022-09-03T14:39:11;100867.72;;;27.38;28.07
59787;BME280;45672;51.612;5.536;2022-09-03T14:41:48;100864.94;;;27.32;27.55
59787;BME280;45672;51.612;5.536;2022-09-03T14:47:22;100863.06;;;27.43;28.60
59787;BME280;45672;51.612;5.536;2022-09-03T14:52:58;100859.06;;;27.72;29.25
59787;BME280;45672;51.612;5.536;2022-09-03T15:01:17;100848.41;;;27.65;28.97
59787;BME280;45672;51.612;5.536;2022-09-03T15:07:01;100852.19;;;27.48;29.48
59787;BME280;45672;51.612;5.536;2022-09-03T15:09:44;100854.63;;;27.45;29.32
59787;BME280;45672;51.612;5.536;2022-09-03T15:12:34;100855.16;;;27.37;29.65
59787;BME280;45672;51.612;5.536;2022-09-03T15:15:08;100849.97;;;27.35;29.41
59787;BME280;45672;51.612;5.536;2022-09-03T15:17:54;100854.59;;;27.34;29.61
59787;BME280;45672;51.612;5.536;2022-09-03T15:20:49;100848.50;;;27.22;30.02
59787;BME280;45672;51.612;5.536;2022-09-03T15:23:40;100853.97;;;27.22;30.21
59787;BME280;45672;51.612;5.536;2022-09-03T15:34:46;100852.91;;;27.28;30.81
59787;BME280;45672;51.612;5.536;2022-09-03T15:37:20;100862.78;;;27.34;30.56
59787;BME280;45672;51.612;5.536;2022-09-03T15:39:58;100866.03;;;27.26;30.16
59787;BME280;45672;51.612;5.536;2022-09-03T15:42:27;100862.44;;;27.26;30.28
59787;BME280;45672;51.612;5.536;2022-09-03T15:45:01;100860.81;;;27.30;30.24
59787;BME280;45672;51.612;5.536;2022-09-03T15:47:49;100862.47;;;27.31;30.07